createdAt,value
2018-05-11T00:01:12.938Z,100538.55
2018-05-11T00:03:40.332Z,100542.22
2018-05-11T00:06:07.735Z,100540.33
2018-05-11T00:08:35.124Z,100544.90
2018-05-11T00:11:02.542Z,100538.94
2018-05-11T00:13:29.935Z,100533.56
2018-05-11T00:15:57.337Z,100535.21
2018-05-11T00:18:24.715Z,100538.80
2018-05-11T00:20:52.115Z,100540.27
2018-05-11T00:23:19.544Z,100546.13
2018-05-11T00:25:46.929Z,100540.64
2018-05-11T00:28:14.320Z,100546.56
2018-05-11T00:30:41.717Z,100544.02
2018-05-11T00:33:09.103Z,100543.41
2018-05-11T00:35:36.500Z,100540.56
2018-05-11T00:38:03.889Z,100549.67
2018-05-11T00:40:31.275Z,100543.30
2018-05-11T00:42:58.673Z,100551.27
2018-05-11T00:45:26.058Z,100552.55
2018-05-11T00:47:53.438Z,100547.12
2018-05-11T00:50:21.022Z,100548.04
2018-05-11T00:52:48.648Z,100549.04
2018-05-11T00:55:27.812Z,100543.00
2018-05-11T00:57:55.202Z,100549.84
2018-05-11T01:00:22.603Z,100546.43
2018-05-11T01:02:50.039Z,100547.86
2018-05-11T01:05:17.484Z,100551.05
2018-05-11T01:07:44.882Z,100550.34
2018-05-11T01:10:12.260Z,100549.47
2018-05-11T01:12:39.666Z,100552.92
2018-05-11T01:15:07.043Z,100556.71
2018-05-11T01:17:34.476Z,100561.42
2018-05-11T01:20:01.905Z,100554.54
2018-05-11T01:22:29.271Z,100560.09
2018-05-11T01:24:56.845Z,100560.52
2018-05-11T01:27:24.472Z,100560.92
2018-05-11T01:29:51.862Z,100556.54
2018-05-11T01:32:19.334Z,100547.92
2018-05-11T01:34:46.961Z,100552.33
2018-05-11T01:37:14.409Z,100553.51
2018-05-11T01:39:41.811Z,100559.45
2018-05-11T01:42:09.211Z,100559.13
2018-05-11T01:44:36.605Z,100560.48
2018-05-11T01:47:04.004Z,100553.69
2018-05-11T01:49:31.404Z,100552.47
2018-05-11T01:51:58.812Z,100557.23
2018-05-11T01:54:26.207Z,100560.52
2018-05-11T01:56:53.613Z,100550.34
2018-05-11T01:59:21.414Z,100557.19
2018-05-11T02:01:48.881Z,100554.48
2018-05-11T02:04:16.397Z,100551.07
2018-05-11T02:06:43.796Z,100560.27
2018-05-11T02:09:11.196Z,100552.08
2018-05-11T02:14:29.668Z,100550.62
2018-05-11T02:16:57.067Z,100549.47
2018-05-11T02:19:24.456Z,100554.30
2018-05-11T02:21:51.867Z,100555.77
2018-05-11T02:24:19.270Z,100552.05
2018-05-11T02:26:46.657Z,100556.19
2018-05-11T02:29:14.038Z,100555.20
2018-05-11T02:31:41.457Z,100557.62
2018-05-11T02:34:08.844Z,100560.84
2018-05-11T02:36:36.302Z,100560.16
2018-05-11T02:39:03.641Z,100563.13
2018-05-11T02:41:31.048Z,100558.80
2018-05-11T02:43:58.450Z,100559.45
2018-05-11T02:46:25.850Z,100560.88
2018-05-11T02:48:53.369Z,100565.65
2018-05-11T02:51:21.610Z,100561.98
2018-05-11T02:53:49.100Z,100555.95
2018-05-11T02:56:16.504Z,100560.42
2018-05-11T02:58:43.882Z,100569.55
2018-05-11T03:01:11.283Z,100562.97
2018-05-11T03:03:38.670Z,100567.80
2018-05-11T03:06:06.068Z,100560.09
2018-05-11T03:08:33.478Z,100558.67
2018-05-11T03:11:00.876Z,100559.22
2018-05-11T03:13:28.279Z,100553.84
2018-05-11T03:15:55.671Z,100564.16
2018-05-11T03:18:23.125Z,100560.93
2018-05-11T03:20:50.440Z,100563.25
2018-05-11T03:23:17.854Z,100564.77
2018-05-11T03:25:45.239Z,100569.44
2018-05-11T03:28:12.663Z,100564.53
2018-05-11T03:30:40.038Z,100562.37
2018-05-11T03:33:07.428Z,100567.56
2018-05-11T03:35:34.811Z,100566.15
2018-05-11T03:38:02.210Z,100571.57
2018-05-11T03:40:29.591Z,100573.89
2018-05-11T03:42:56.983Z,100571.61
2018-05-11T03:45:24.384Z,100578.69
2018-05-11T03:47:51.845Z,100575.27
2018-05-11T03:50:19.328Z,100568.28
2018-05-11T03:52:46.706Z,100576.19
2018-05-11T03:55:14.097Z,100580.09
2018-05-11T03:57:41.501Z,100581.11
2018-05-11T04:00:08.891Z,100582.03
2018-05-11T04:02:47.826Z,100599.37
2018-05-11T04:05:27.082Z,100594.84
2018-05-11T04:08:07.003Z,100600.24
2018-05-11T04:10:34.401Z,100597.16
2018-05-11T04:13:01.785Z,100600.30
2018-05-11T04:15:29.166Z,100601.12
2018-05-11T04:17:56.588Z,100600.22
2018-05-11T04:20:24.047Z,100603.13
2018-05-11T04:22:52.000Z,100602.20
2018-05-11T04:25:19.393Z,100598.98
2018-05-11T04:27:46.910Z,100604.16
2018-05-11T04:30:14.294Z,100608.05
2018-05-11T04:32:41.695Z,100608.16
2018-05-11T04:35:09.082Z,100615.12
2018-05-11T04:37:36.492Z,100618.28
2018-05-11T04:40:03.874Z,100613.29
2018-05-11T04:42:31.287Z,100611.64
2018-05-11T04:44:58.885Z,100615.68
2018-05-11T04:47:26.295Z,100616.84
2018-05-11T04:49:53.682Z,100612.76
2018-05-11T04:52:22.161Z,100614.03
2018-05-11T04:54:49.576Z,100618.18
2018-05-11T04:57:16.977Z,100621.00
2018-05-11T04:59:44.369Z,100621.67
2018-05-11T05:02:11.766Z,100624.45
2018-05-11T05:04:39.168Z,100634.16
2018-05-11T05:07:06.568Z,100634.08
2018-05-11T05:09:33.957Z,100632.52
2018-05-11T05:12:01.352Z,100635.91
2018-05-11T05:14:28.742Z,100642.27
2018-05-11T05:16:56.118Z,100649.41
2018-05-11T05:19:23.595Z,100649.45
2018-05-11T05:21:50.901Z,100652.94
2018-05-11T05:24:18.302Z,100651.45
2018-05-11T05:26:45.711Z,100650.08
2018-05-11T05:29:13.130Z,100648.14
2018-05-11T05:31:40.501Z,100644.57
2018-05-11T05:34:07.910Z,100644.78
2018-05-11T05:36:35.311Z,100635.91
2018-05-11T05:39:02.701Z,100636.03
2018-05-11T05:41:30.088Z,100640.17
2018-05-11T05:43:57.483Z,100637.45
2018-05-11T05:46:24.867Z,100636.83
2018-05-11T05:48:52.413Z,100643.30
2018-05-11T05:51:19.794Z,100641.19
2018-05-11T05:53:47.285Z,100639.85
2018-05-11T05:56:14.671Z,100637.83
2018-05-11T05:58:42.062Z,100633.53
2018-05-11T06:01:09.456Z,100634.44
2018-05-11T06:03:36.846Z,100638.92
2018-05-11T06:06:04.238Z,100640.64
2018-05-11T06:08:31.635Z,100644.22
2018-05-11T06:10:59.091Z,100637.38
2018-05-11T06:13:26.411Z,100636.34
2018-05-11T06:15:53.786Z,100637.45
2018-05-11T06:18:21.190Z,100634.31
2018-05-11T06:20:48.582Z,100635.92
2018-05-11T06:23:15.983Z,100631.10
2018-05-11T06:25:43.612Z,100636.34
2018-05-11T06:28:11.066Z,100634.95
2018-05-11T06:30:38.542Z,100631.89
2018-05-11T06:33:05.943Z,100631.89
2018-05-11T06:35:33.332Z,100629.12
2018-05-11T06:38:00.727Z,100630.03
2018-05-11T06:40:28.197Z,100632.42
2018-05-11T06:42:55.498Z,100628.72
2018-05-11T06:45:23.043Z,100628.06
2018-05-11T06:47:50.687Z,100631.13
2018-05-11T06:50:18.070Z,100625.99
2018-05-11T06:52:45.521Z,100627.88
2018-05-11T06:55:12.952Z,100624.98
2018-05-11T06:57:40.349Z,100618.28
2018-05-11T07:00:07.737Z,100617.86
2018-05-11T07:02:35.165Z,100621.66
2018-05-11T07:05:02.619Z,100614.23
2018-05-11T07:07:30.012Z,100614.42
2018-05-11T07:09:57.412Z,100609.48
2018-05-11T07:12:24.792Z,100602.84
2018-05-11T07:14:52.968Z,100604.41
2018-05-11T07:17:20.390Z,100604.14
2018-05-11T07:19:47.799Z,100603.23
2018-05-11T07:22:15.186Z,100593.74
2018-05-11T07:24:42.625Z,100588.80
2018-05-11T07:27:10.027Z,100591.91
2018-05-11T07:29:37.425Z,100591.05
2018-05-11T07:32:04.816Z,100588.48
2018-05-11T07:34:32.256Z,100587.18
2018-05-11T07:36:59.690Z,100582.65
2018-05-11T07:39:27.046Z,100579.56
2018-05-11T07:41:54.435Z,100579.01
2018-05-11T07:44:21.842Z,100579.14
2018-05-11T07:46:49.227Z,100570.52
2018-05-11T07:49:16.626Z,100573.85
2018-05-11T07:51:44.015Z,100572.02
2018-05-11T07:54:11.414Z,100560.63
2018-05-11T07:56:38.799Z,100564.84
2018-05-11T07:59:06.188Z,100565.14
2018-05-11T08:01:33.567Z,100559.05
2018-05-11T08:04:00.991Z,100565.61
2018-05-11T08:06:28.353Z,100557.42
2018-05-11T08:08:55.742Z,100560.55
2018-05-11T08:11:23.166Z,100554.55
2018-05-11T08:13:50.594Z,100556.94
2018-05-11T08:16:17.978Z,100552.05
2018-05-11T08:18:45.368Z,100543.24
2018-05-11T08:21:12.757Z,100545.72
2018-05-11T08:23:40.155Z,100542.47
2018-05-11T08:26:07.631Z,100535.77
2018-05-11T08:28:35.137Z,100545.22
2018-05-11T08:31:02.535Z,100539.66
2018-05-11T08:33:29.911Z,100540.14
2018-05-11T08:35:57.396Z,100528.69
2018-05-11T08:38:24.679Z,100525.66
2018-05-11T08:40:52.072Z,100528.87
2018-05-11T08:43:19.474Z,100526.39
2018-05-11T08:45:46.864Z,100529.55
2018-05-11T08:48:14.250Z,100524.04
2018-05-11T08:50:41.645Z,100528.58
2018-05-11T08:53:09.108Z,100528.27
2018-05-11T08:55:36.488Z,100521.50
2018-05-11T08:58:03.880Z,100526.61
2018-05-11T09:00:31.277Z,100515.14
2018-05-11T09:02:58.671Z,100511.83
2018-05-11T09:05:26.053Z,100505.25
2018-05-11T09:07:54.110Z,100505.67
2018-05-11T09:10:21.654Z,100509.88
2018-05-11T09:12:49.044Z,100508.89
2018-05-11T09:15:16.450Z,100507.44
2018-05-11T09:17:43.825Z,100500.67
2018-05-11T09:20:11.224Z,100506.47
2018-05-11T09:22:38.618Z,100501.53
2018-05-11T09:25:05.998Z,100493.07
2018-05-11T09:27:33.387Z,100496.83
2018-05-11T09:30:00.785Z,100497.22
2018-05-11T09:32:28.188Z,100495.41
2018-05-11T09:34:55.587Z,100496.05
2018-05-11T09:37:23.624Z,100493.58
2018-05-11T09:39:51.049Z,100492.14
2018-05-11T09:42:18.394Z,100482.86
2018-05-11T09:44:45.813Z,100485.13
2018-05-11T09:47:13.197Z,100486.49
2018-05-11T09:49:40.586Z,100492.64
2018-05-11T09:52:07.988Z,100479.66
2018-05-11T09:54:35.390Z,100484.74
2018-05-11T09:57:02.784Z,100486.17
2018-05-11T09:59:30.185Z,100484.78
2018-05-11T10:01:57.558Z,100489.56
2018-05-11T10:04:24.958Z,100488.78
2018-05-11T10:06:52.342Z,100485.03
2018-05-11T10:09:19.761Z,100477.72
2018-05-11T10:11:47.151Z,100483.82
2018-05-11T10:14:14.558Z,100481.47
2018-05-11T10:19:10.715Z,100477.56
2018-05-11T10:21:38.104Z,100469.59
2018-05-11T10:24:05.511Z,100464.92
2018-05-11T10:26:32.915Z,100464.58
2018-05-11T10:29:00.398Z,100470.41
2018-05-11T10:31:27.707Z,100467.70
2018-05-11T10:33:55.105Z,100465.63
2018-05-11T10:36:22.503Z,100458.38
2018-05-11T10:38:49.904Z,100452.43
2018-05-11T10:41:17.287Z,100453.38
2018-05-11T10:43:44.690Z,100446.89
2018-05-11T10:46:12.075Z,100448.17
2018-05-11T10:48:39.489Z,100442.48
2018-05-11T10:51:06.867Z,100448.11
2018-05-11T10:53:34.246Z,100436.89
2018-05-11T10:56:01.635Z,100430.83
2018-05-11T10:58:29.029Z,100437.80
2018-05-11T11:00:56.430Z,100432.64
2018-05-11T11:03:24.230Z,100430.45
2018-05-11T11:05:51.793Z,100430.46
2018-05-11T11:08:19.208Z,100423.13
2018-05-11T11:10:46.604Z,100419.19
2018-05-11T11:13:13.986Z,100414.83
2018-05-11T11:15:41.379Z,100412.66
2018-05-11T11:18:08.759Z,100413.08
2018-05-11T11:20:36.143Z,100405.31
2018-05-11T11:23:03.532Z,100403.17
2018-05-11T11:25:30.935Z,100404.03
2018-05-11T11:27:58.316Z,100414.02
2018-05-11T11:30:25.751Z,100402.80
2018-05-11T11:32:53.183Z,100391.89
2018-05-11T11:35:20.617Z,100396.14
2018-05-11T11:37:47.995Z,100387.81
2018-05-11T11:40:15.403Z,100385.27
2018-05-11T11:42:42.795Z,100383.55
2018-05-11T11:45:10.178Z,100371.13
2018-05-11T11:47:37.677Z,100367.05
2018-05-11T11:50:04.982Z,100360.19
2018-05-11T11:52:32.360Z,100367.23
2018-05-11T11:54:59.751Z,100365.71
2018-05-11T11:57:27.140Z,100355.61
2018-05-11T11:59:54.534Z,100355.83
2018-05-11T12:02:21.973Z,100357.41
2018-05-11T12:04:49.371Z,100365.91
2018-05-11T12:07:16.858Z,100350.59
2018-05-11T12:09:44.234Z,100354.72
2018-05-11T12:12:11.627Z,100348.65
2018-05-11T12:14:39.009Z,100352.09
2018-05-11T12:17:06.390Z,100358.16
2018-05-11T12:19:33.791Z,100352.11
2018-05-11T12:22:01.201Z,100348.23
2018-05-11T12:24:28.581Z,100351.43
2018-05-11T12:26:55.975Z,100345.80
2018-05-11T12:29:23.359Z,100342.77
2018-05-11T12:31:50.748Z,100342.31
2018-05-11T12:34:18.123Z,100337.83
2018-05-11T12:36:45.518Z,100333.95
2018-05-11T12:39:12.904Z,100328.31
2018-05-11T12:41:40.285Z,100321.78
2018-05-11T12:44:07.669Z,100323.33
2018-05-11T12:46:35.095Z,100311.35
2018-05-11T12:49:02.426Z,100326.66
2018-05-11T12:51:29.838Z,100324.14
2018-05-11T12:53:57.223Z,100317.94
2018-05-11T12:56:24.746Z,100318.86
2018-05-11T12:58:52.524Z,100328.59
2018-05-11T13:01:19.905Z,100317.63
2018-05-11T13:03:47.275Z,100321.17
2018-05-11T13:06:14.684Z,100321.73
2018-05-11T13:08:42.088Z,100318.59
2018-05-11T13:11:09.482Z,100306.16
2018-05-11T13:13:36.863Z,100314.45
2018-05-11T13:16:04.248Z,100307.07
2018-05-11T13:18:31.889Z,100305.27
2018-05-11T13:20:59.266Z,100306.41
2018-05-11T13:23:26.655Z,100303.99
2018-05-11T13:25:54.827Z,100303.45
2018-05-11T13:28:22.207Z,100303.12
2018-05-11T13:30:49.620Z,100306.45
2018-05-11T13:33:16.987Z,100292.86
2018-05-11T13:35:44.370Z,100292.66
2018-05-11T13:38:11.779Z,100284.56
2018-05-11T13:40:39.165Z,100287.50
2018-05-11T13:43:06.549Z,100291.86
2018-05-11T13:45:33.936Z,100284.39
2018-05-11T13:48:01.318Z,100297.39
2018-05-11T13:50:28.714Z,100289.61
2018-05-11T13:52:56.063Z,100287.52
2018-05-11T13:55:23.696Z,100284.33
2018-05-11T13:57:51.088Z,100286.61
2018-05-11T14:00:18.477Z,100276.95
2018-05-11T14:02:45.860Z,100278.78
2018-05-11T14:05:13.236Z,100279.96
2018-05-11T14:07:40.635Z,100271.27
2018-05-11T14:10:08.016Z,100270.81
2018-05-11T14:12:35.403Z,100271.04
2018-05-11T14:15:02.795Z,100266.38
2018-05-11T14:17:30.179Z,100269.48
2018-05-11T14:19:57.564Z,100264.98
2018-05-11T14:22:25.128Z,100262.75
2018-05-11T14:24:52.538Z,100258.85
2018-05-11T14:27:19.893Z,100259.28
2018-05-11T14:29:47.271Z,100254.05
2018-05-11T14:32:14.665Z,100251.05
2018-05-11T14:34:42.040Z,100259.86
2018-05-11T14:37:09.435Z,100254.62
2018-05-11T14:39:36.821Z,100244.88
2018-05-11T14:42:04.203Z,100241.98
2018-05-11T14:44:31.583Z,100242.04
2018-05-11T14:46:58.970Z,100233.95
2018-05-11T14:49:26.353Z,100238.50
2018-05-11T14:51:53.855Z,100236.38
2018-05-11T14:54:21.297Z,100230.69
2018-05-11T14:56:48.954Z,100232.94
2018-05-11T14:59:16.347Z,100228.16
2018-05-11T15:01:43.726Z,100216.77
2018-05-11T15:04:11.132Z,100214.54
2018-05-11T15:06:38.499Z,100214.28
2018-05-11T15:09:05.894Z,100223.94
2018-05-11T15:11:33.277Z,100222.47
2018-05-11T15:14:00.659Z,100215.78
2018-05-11T15:16:28.036Z,100216.66
2018-05-11T15:18:55.425Z,100213.09
2018-05-11T15:21:22.798Z,100213.69
2018-05-11T15:23:50.178Z,100213.64
2018-05-11T15:26:17.566Z,100210.88
2018-05-11T15:28:44.958Z,100200.98
2018-05-11T15:31:12.375Z,100194.84
2018-05-11T15:33:39.725Z,100190.91
2018-05-11T15:36:07.107Z,100176.14
2018-05-11T15:38:34.492Z,100179.73
2018-05-11T15:41:01.878Z,100179.00
2018-05-11T15:43:29.259Z,100179.59
2018-05-11T15:45:57.040Z,100175.22
2018-05-11T15:48:24.406Z,100171.50
2018-05-11T15:50:51.790Z,100175.84
2018-05-11T15:53:19.184Z,100179.39
2018-05-11T15:55:46.572Z,100184.20
2018-05-11T15:58:13.975Z,100180.12
2018-05-11T16:00:41.348Z,100172.37
2018-05-11T16:03:08.743Z,100180.91
2018-05-11T16:05:36.115Z,100183.11
2018-05-11T16:08:03.516Z,100184.83
2018-05-11T16:10:30.939Z,100187.16
2018-05-11T16:12:58.397Z,100191.31
2018-05-11T16:15:25.709Z,100185.28
2018-05-11T16:17:53.898Z,100190.55
2018-05-11T16:20:21.274Z,100188.12
2018-05-11T16:22:48.656Z,100188.27
2018-05-11T16:25:16.049Z,100186.88
2018-05-11T16:27:43.440Z,100182.73
2018-05-11T16:30:10.823Z,100183.33
2018-05-11T16:32:38.218Z,100176.16
2018-05-11T16:35:05.597Z,100178.11
2018-05-11T16:40:24.262Z,100181.80
2018-05-11T16:42:51.614Z,100177.91
2018-05-11T16:45:18.993Z,100178.84
2018-05-11T16:47:46.397Z,100174.19
2018-05-11T16:50:13.792Z,100170.34
2018-05-11T16:52:41.163Z,100170.83
2018-05-11T16:55:08.559Z,100176.05
2018-05-11T16:57:35.943Z,100171.73
2018-05-11T17:00:03.333Z,100170.92
2018-05-11T17:02:30.719Z,100171.05
2018-05-11T17:04:58.108Z,100168.80
2018-05-11T17:07:25.891Z,100174.12
2018-05-11T17:09:53.284Z,100167.96
2018-05-11T17:12:20.687Z,100162.30
2018-05-11T17:14:48.079Z,100168.17
2018-05-11T17:17:15.461Z,100167.20
2018-05-11T17:19:42.851Z,100160.28
2018-05-11T17:22:10.240Z,100159.41
2018-05-11T17:24:37.611Z,100164.27
2018-05-11T17:27:04.998Z,100162.23
2018-05-11T17:29:32.379Z,100167.33
2018-05-11T17:31:59.764Z,100163.41
2018-05-11T17:34:27.156Z,100167.89
2018-05-11T17:36:54.576Z,100165.70
2018-05-11T17:39:21.959Z,100167.95
2018-05-11T17:41:49.450Z,100168.03
2018-05-11T17:44:16.739Z,100162.91
2018-05-11T17:46:44.615Z,100154.22
2018-05-11T17:49:12.007Z,100163.02
2018-05-11T17:51:39.400Z,100167.70
2018-05-11T17:54:06.788Z,100167.64
2018-05-11T17:56:34.173Z,100162.13
2018-05-11T17:59:01.564Z,100164.27
2018-05-11T18:01:28.937Z,100167.34
2018-05-11T18:03:56.325Z,100166.53
2018-05-11T18:06:23.740Z,100167.83
2018-05-11T18:08:51.114Z,100167.85
2018-05-11T18:11:18.483Z,100168.28
2018-05-11T18:13:45.871Z,100166.13
2018-05-11T18:16:13.276Z,100163.53
2018-05-11T18:18:40.690Z,100169.15
2018-05-11T18:21:08.067Z,100169.19
2018-05-11T18:23:36.887Z,100168.34
2018-05-11T18:26:04.263Z,100170.51
2018-05-11T18:28:31.680Z,100171.41
2018-05-11T18:30:59.086Z,100170.13
2018-05-11T18:33:26.449Z,100168.83
2018-05-11T18:35:53.924Z,100174.88
2018-05-11T18:38:21.296Z,100175.76
2018-05-11T18:40:48.679Z,100171.86
2018-05-11T18:43:16.072Z,100170.11
2018-05-11T18:45:43.460Z,100175.34
2018-05-11T18:48:10.840Z,100179.61
2018-05-11T18:50:38.256Z,100178.33
2018-05-11T18:53:05.925Z,100178.77
2018-05-11T18:55:33.007Z,100186.08
2018-05-11T18:58:00.388Z,100175.73
2018-05-11T19:00:27.780Z,100182.63
2018-05-11T19:02:55.165Z,100181.73
2018-05-11T19:05:22.548Z,100183.91
2018-05-11T19:07:49.938Z,100192.08
2018-05-11T19:10:17.331Z,100189.52
2018-05-11T19:12:44.707Z,100198.11
2018-05-11T19:15:12.131Z,100204.14
2018-05-11T19:17:39.506Z,100206.27
2018-05-11T19:20:06.880Z,100206.59
2018-05-11T19:22:34.263Z,100206.16
2018-05-11T19:25:01.652Z,100208.33
2018-05-11T19:27:29.027Z,100210.86
2018-05-11T19:29:56.654Z,100206.97
2018-05-11T19:32:24.168Z,100216.00
2018-05-11T19:34:51.436Z,100212.52
2018-05-11T19:37:18.835Z,100215.91
2018-05-11T19:39:46.479Z,100209.87
2018-05-11T19:42:13.869Z,100215.83
2018-05-11T19:44:41.243Z,100220.05
2018-05-11T19:47:08.628Z,100220.52
2018-05-11T19:49:36.014Z,100219.69
2018-05-11T19:52:03.395Z,100228.72
2018-05-11T19:54:30.782Z,100223.97
2018-05-11T19:56:58.159Z,100233.47
2018-05-11T19:59:26.628Z,100236.69
2018-05-11T20:01:54.001Z,100242.31
2018-05-11T20:04:21.867Z,100236.31
2018-05-11T20:06:49.254Z,100240.72
2018-05-11T20:09:16.643Z,100245.48
2018-05-11T20:11:44.035Z,100249.48
2018-05-11T20:14:11.427Z,100253.86
2018-05-11T20:16:38.815Z,100257.84
2018-05-11T20:19:06.203Z,100247.17
2018-05-11T20:21:33.594Z,100256.12
2018-05-11T20:24:00.985Z,100253.73
2018-05-11T20:26:28.376Z,100252.77
2018-05-11T20:28:55.773Z,100255.41
2018-05-11T20:31:24.154Z,100251.91
2018-05-11T20:33:51.539Z,100252.41
2018-05-11T20:36:18.958Z,100254.17
2018-05-11T20:38:46.332Z,100259.30
2018-05-11T20:41:13.726Z,100265.36
2018-05-11T20:43:41.112Z,100266.65
2018-05-11T20:46:08.502Z,100263.09
2018-05-11T20:48:35.878Z,100269.00
2018-05-11T20:51:03.266Z,100262.50
2018-05-11T20:53:30.642Z,100261.23
2018-05-11T20:55:58.023Z,100266.17
2018-05-11T20:58:25.420Z,100265.34
2018-05-11T21:00:52.816Z,100265.69
2018-05-11T21:03:20.833Z,100265.78
2018-05-11T21:05:48.223Z,100265.72
2018-05-11T21:08:15.703Z,100266.63
2018-05-11T21:10:43.092Z,100259.25
2018-05-11T21:13:10.480Z,100258.41
2018-05-11T21:15:37.869Z,100257.84
2018-05-11T21:18:05.252Z,100258.66
2018-05-11T21:20:32.640Z,100254.80
2018-05-11T21:23:00.017Z,100253.80
2018-05-11T21:25:31.393Z,100248.83
2018-05-11T21:27:58.771Z,100252.73
2018-05-11T21:30:27.190Z,100255.06
2018-05-11T21:32:54.571Z,100259.75
2018-05-11T21:35:21.972Z,100262.16
2018-05-11T21:37:49.356Z,100257.08
2018-05-11T21:40:16.751Z,100259.12
2018-05-11T21:42:44.136Z,100260.95
2018-05-11T21:45:11.524Z,100257.96
2018-05-11T21:47:38.894Z,100258.39
2018-05-11T21:50:06.283Z,100265.98
2018-05-11T21:52:33.667Z,100266.72
2018-05-11T21:55:01.338Z,100268.34
2018-05-11T21:57:28.721Z,100262.67
2018-05-11T21:59:56.116Z,100266.30
2018-05-11T22:02:23.504Z,100272.28
2018-05-11T22:04:51.152Z,100271.00
2018-05-11T22:07:18.534Z,100265.28
2018-05-11T22:09:45.926Z,100260.42
2018-05-11T22:12:13.328Z,100257.05
2018-05-11T22:14:40.705Z,100255.75
2018-05-11T22:17:08.103Z,100251.03
2018-05-11T22:19:35.532Z,100250.80
2018-05-11T22:22:02.903Z,100245.20
2018-05-11T22:24:30.284Z,100246.96
2018-05-11T22:26:57.693Z,100252.69
2018-05-11T22:29:25.067Z,100246.82
2018-05-11T22:31:52.456Z,100247.28
2018-05-11T22:34:19.853Z,100241.18
2018-05-11T22:36:47.301Z,100247.25
2018-05-11T22:39:14.709Z,100244.61
2018-05-11T22:41:42.151Z,100235.88
2018-05-11T22:44:09.569Z,100237.85
2018-05-11T22:46:36.976Z,100234.39
2018-05-11T22:49:04.549Z,100235.25
2018-05-11T22:51:31.968Z,100238.86
2018-05-11T22:53:59.960Z,100235.36
2018-05-11T22:56:27.663Z,100238.17
2018-05-11T22:58:55.097Z,100239.00
2018-05-11T23:01:22.518Z,100235.16
2018-05-11T23:03:49.910Z,100236.36
2018-05-11T23:06:17.311Z,100235.25
2018-05-11T23:08:44.703Z,100233.98
2018-05-11T23:11:12.111Z,100234.47
2018-05-11T23:13:39.504Z,100238.17
2018-05-11T23:16:06.899Z,100228.23
2018-05-11T23:18:34.338Z,100230.92
2018-05-11T23:21:01.835Z,100229.63
2018-05-11T23:23:29.260Z,100229.69
2018-05-11T23:25:56.684Z,100227.55
2018-05-11T23:28:24.075Z,100230.37
2018-05-11T23:30:51.563Z,100224.15
2018-05-11T23:33:18.980Z,100226.23
2018-05-11T23:35:46.379Z,100212.79
2018-05-11T23:38:13.771Z,100211.88
2018-05-11T23:40:41.174Z,100210.80
2018-05-11T23:43:08.582Z,100215.81
2018-05-11T23:45:35.979Z,100216.81
2018-05-11T23:48:03.368Z,100215.38
2018-05-11T23:50:30.767Z,100212.92
2018-05-11T23:52:58.164Z,100209.83
2018-05-11T23:55:25.633Z,100207.03
2018-05-11T23:57:53.043Z,100207.39
